sensor_id;sensor_type;location;lat;lon;timestamp;temperature;humidity
8736;DHT22;4404;49.308;12.178;2023-06-05T05:50:52;15.60;90.00
8736;DHT22;4404;49.308;12.178;2023-06-05T05:52:54;16.60;86.80
8736;DHT22;4404;49.308;12.178;2023-06-05T05:55:00;16.70;86.40
8736;DHT22;4404;49.308;12.178;2023-06-05T05:57:05;16.90;87.50
8736;DHT22;4404;49.308;12.178;2023-06-05T05:59:11;16.80;87.80
8736;DHT22;4404;49.308;12.178;2023-06-05T06:01:19;16.90;85.70
8736;DHT22;4404;49.308;12.178;2023-06-05T06:03:23;17.00;84.50
8736;DHT22;4404;49.308;12.178;2023-06-05T06:05:30;17.10;84.00
8736;DHT22;4404;49.308;12.178;2023-06-05T06:07:36;17.20;84.40
8736;DHT22;4404;49.308;12.178;2023-06-05T06:09:42;17.30;84.20
8736;DHT22;4404;49.308;12.178;2023-06-05T06:11:49;17.30;85.10
8736;DHT22;4404;49.308;12.178;2023-06-05T06:13:57;17.40;84.90
8736;DHT22;4404;49.308;12.178;2023-06-05T06:16:07;17.50;84.80
8736;DHT22;4404;49.308;12.178;2023-06-05T06:18:10;17.60;86.50
8736;DHT22;4404;49.308;12.178;2023-06-05T06:20:19;17.60;85.70
8736;DHT22;4404;49.308;12.178;2023-06-05T06:22:24;17.70;86.30
8736;DHT22;4404;49.308;12.178;2023-06-05T06:24:33;17.80;86.70
8736;DHT22;4404;49.308;12.178;2023-06-05T06:26:37;17.80;88.40
8736;DHT22;4404;49.308;12.178;2023-06-05T06:28:43;17.90;87.30
8736;DHT22;4404;49.308;12.178;2023-06-05T06:30:46;17.90;87.40
8736;DHT22;4404;49.308;12.178;2023-06-05T06:32:58;18.00;88.20
8736;DHT22;4404;49.308;12.178;2023-06-05T06:35:08;18.10;89.20
8736;DHT22;4404;49.308;12.178;2023-06-05T06:37:20;18.20;88.50
8736;DHT22;4404;49.308;12.178;2023-06-05T06:39:25;18.30;87.50
8736;DHT22;4404;49.308;12.178;2023-06-05T06:41:29;18.40;86.70
8736;DHT22;4404;49.308;12.178;2023-06-05T06:43:31;18.50;88.00
8736;DHT22;4404;49.308;12.178;2023-06-05T06:45:35;18.40;89.20
8736;DHT22;4404;49.308;12.178;2023-06-05T06:47:39;18.50;87.70
8736;DHT22;4404;49.308;12.178;2023-06-05T06:49:44;18.50;87.40
8736;DHT22;4404;49.308;12.178;2023-06-05T06:51:53;18.50;87.60
8736;DHT22;4404;49.308;12.178;2023-06-05T06:54:00;18.60;87.40
8736;DHT22;4404;49.308;12.178;2023-06-05T06:56:08;18.60;87.20
8736;DHT22;4404;49.308;12.178;2023-06-05T06:58:17;18.70;87.00
8736;DHT22;4404;49.308;12.178;2023-06-05T07:00:25;18.70;87.70
8736;DHT22;4404;49.308;12.178;2023-06-05T07:14:51;19.20;87.90
8736;DHT22;4404;49.308;12.178;2023-06-05T07:16:56;19.40;86.50
8736;DHT22;4404;49.308;12.178;2023-06-05T07:19:00;19.40;87.20
8736;DHT22;4404;49.308;12.178;2023-06-05T07:21:05;19.40;86.80
8736;DHT22;4404;49.308;12.178;2023-06-05T07:23:26;19.50;85.70
8736;DHT22;4404;49.308;12.178;2023-06-05T07:25:29;19.50;85.20
8736;DHT22;4404;49.308;12.178;2023-06-05T07:27:32;19.60;85.90
8736;DHT22;4404;49.308;12.178;2023-06-05T07:29:45;19.60;87.00
8736;DHT22;4404;49.308;12.178;2023-06-05T07:31:49;19.50;87.30
8736;DHT22;4404;49.308;12.178;2023-06-05T07:33:51;19.60;85.10
8736;DHT22;4404;49.308;12.178;2023-06-05T07:35:53;19.70;84.30
8736;DHT22;4404;49.308;12.178;2023-06-05T07:37:56;19.80;86.40
8736;DHT22;4404;49.308;12.178;2023-06-05T07:39:58;19.90;86.60
8736;DHT22;4404;49.308;12.178;2023-06-05T07:42:00;20.00;86.90
8736;DHT22;4404;49.308;12.178;2023-06-05T07:44:04;20.10;85.40
8736;DHT22;4404;49.308;12.178;2023-06-05T07:46:07;20.20;84.80
8736;DHT22;4404;49.308;12.178;2023-06-05T07:48:11;20.30;84.00
8736;DHT22;4404;49.308;12.178;2023-06-05T07:50:14;20.30;84.20
8736;DHT22;4404;49.308;12.178;2023-06-05T07:52:16;20.30;85.30
8736;DHT22;4404;49.308;12.178;2023-06-05T07:54:18;20.30;85.80
8736;DHT22;4404;49.308;12.178;2023-06-05T07:56:22;20.40;85.60
8736;DHT22;4404;49.308;12.178;2023-06-05T07:58:26;20.40;86.00
8736;DHT22;4404;49.308;12.178;2023-06-05T08:00:28;20.40;85.10
8736;DHT22;4404;49.308;12.178;2023-06-05T08:02:30;20.40;86.80
8736;DHT22;4404;49.308;12.178;2023-06-05T08:04:33;20.40;85.20
8736;DHT22;4404;49.308;12.178;2023-06-05T08:06:36;20.40;86.20
8736;DHT22;4404;49.308;12.178;2023-06-05T08:08:41;20.50;86.00
8736;DHT22;4404;49.308;12.178;2023-06-05T08:10:44;20.60;86.70
8736;DHT22;4404;49.308;12.178;2023-06-05T08:12:48;20.60;85.30
8736;DHT22;4404;49.308;12.178;2023-06-05T08:14:50;20.70;85.40
8736;DHT22;4404;49.308;12.178;2023-06-05T08:16:52;20.80;85.60
8736;DHT22;4404;49.308;12.178;2023-06-05T08:18:56;20.80;85.50
8736;DHT22;4404;49.308;12.178;2023-06-05T08:20:59;20.90;84.80
8736;DHT22;4404;49.308;12.178;2023-06-05T08:23:02;21.00;86.70
8736;DHT22;4404;49.308;12.178;2023-06-05T08:25:06;21.10;85.50
8736;DHT22;4404;49.308;12.178;2023-06-05T08:27:09;21.10;84.60
8736;DHT22;4404;49.308;12.178;2023-06-05T08:29:11;21.20;84.50
8736;DHT22;4404;49.308;12.178;2023-06-05T08:31:14;21.20;84.00
8736;DHT22;4404;49.308;12.178;2023-06-05T08:33:16;21.40;83.90
8736;DHT22;4404;49.308;12.178;2023-06-05T08:35:18;21.40;83.40
8736;DHT22;4404;49.308;12.178;2023-06-05T08:37:21;21.60;82.60
8736;DHT22;4404;49.308;12.178;2023-06-05T08:39:23;21.60;83.80
8736;DHT22;4404;49.308;12.178;2023-06-05T08:41:29;21.60;84.60
8736;DHT22;4404;49.308;12.178;2023-06-05T08:43:35;21.70;83.00
8736;DHT22;4404;49.308;12.178;2023-06-05T08:45:37;21.70;83.10
8736;DHT22;4404;49.308;12.178;2023-06-05T08:47:39;21.80;82.60
8736;DHT22;4404;49.308;12.178;2023-06-05T08:49:42;21.90;83.20
8736;DHT22;4404;49.308;12.178;2023-06-05T08:51:49;22.00;83.00
8736;DHT22;4404;49.308;12.178;2023-06-05T08:53:57;21.90;82.00
8736;DHT22;4404;49.308;12.178;2023-06-05T08:56:03;21.90;82.40
8736;DHT22;4404;49.308;12.178;2023-06-05T08:58:06;21.90;83.00
8736;DHT22;4404;49.308;12.178;2023-06-05T09:00:10;21.90;83.20
8736;DHT22;4404;49.308;12.178;2023-06-05T09:02:19;22.00;82.40
8736;DHT22;4404;49.308;12.178;2023-06-05T09:04:22;22.10;81.60
8736;DHT22;4404;49.308;12.178;2023-06-05T09:06:25;22.20;81.80
8736;DHT22;4404;49.308;12.178;2023-06-05T09:08:38;22.30;81.70
8736;DHT22;4404;49.308;12.178;2023-06-05T09:10:43;22.50;81.10
8736;DHT22;4404;49.308;12.178;2023-06-05T09:12:53;22.60;82.70
8736;DHT22;4404;49.308;12.178;2023-06-05T09:14:56;22.70;80.60
8736;DHT22;4404;49.308;12.178;2023-06-05T09:17:00;22.90;80.80
8736;DHT22;4404;49.308;12.178;2023-06-05T09:19:04;22.90;81.40
8736;DHT22;4404;49.308;12.178;2023-06-05T09:21:12;22.90;82.10
8736;DHT22;4404;49.308;12.178;2023-06-05T09:23:25;22.90;80.20
8736;DHT22;4404;49.308;12.178;2023-06-05T09:25:45;22.90;80.20
8736;DHT22;4404;49.308;12.178;2023-06-05T09:28:05;23.00;80.40
8736;DHT22;4404;49.308;12.178;2023-06-05T09:30:08;23.00;80.50
8736;DHT22;4404;49.308;12.178;2023-06-05T09:32:16;23.00;79.40
8736;DHT22;4404;49.308;12.178;2023-06-05T09:34:25;23.00;81.10
8736;DHT22;4404;49.308;12.178;2023-06-05T09:36:29;23.00;81.30
8736;DHT22;4404;49.308;12.178;2023-06-05T09:38:35;23.10;81.70
8736;DHT22;4404;49.308;12.178;2023-06-05T09:40:39;23.20;80.40
8736;DHT22;4404;49.308;12.178;2023-06-05T09:42:45;23.20;81.20
8736;DHT22;4404;49.308;12.178;2023-06-05T09:45:04;23.20;80.70
8736;DHT22;4404;49.308;12.178;2023-06-05T09:47:21;23.30;78.40
8736;DHT22;4404;49.308;12.178;2023-06-05T09:49:46;23.40;79.00
8736;DHT22;4404;49.308;12.178;2023-06-05T09:52:06;23.40;78.90
8736;DHT22;4404;49.308;12.178;2023-06-05T09:54:12;23.70;79.60
8736;DHT22;4404;49.308;12.178;2023-06-05T09:56:16;23.50;78.80
8736;DHT22;4404;49.308;12.178;2023-06-05T09:58:20;23.60;79.80
8736;DHT22;4404;49.308;12.178;2023-06-05T10:00:22;23.60;82.00
8736;DHT22;4404;49.308;12.178;2023-06-05T10:02:33;23.70;78.90
8736;DHT22;4404;49.308;12.178;2023-06-05T10:04:38;23.60;80.80
8736;DHT22;4404;49.308;12.178;2023-06-05T10:06:44;23.70;79.10
8736;DHT22;4404;49.308;12.178;2023-06-05T10:08:48;23.70;80.50
8736;DHT22;4404;49.308;12.178;2023-06-05T10:10:50;23.70;79.40
8736;DHT22;4404;49.308;12.178;2023-06-05T10:12:53;23.70;78.80
8736;DHT22;4404;49.308;12.178;2023-06-05T10:14:58;23.70;80.00
8736;DHT22;4404;49.308;12.178;2023-06-05T10:17:02;23.70;81.20
8736;DHT22;4404;49.308;12.178;2023-06-05T10:19:05;23.70;79.50
8736;DHT22;4404;49.308;12.178;2023-06-05T10:21:08;23.70;79.10
8736;DHT22;4404;49.308;12.178;2023-06-05T10:23:11;23.70;79.50
8736;DHT22;4404;49.308;12.178;2023-06-05T10:25:13;23.70;78.10
8736;DHT22;4404;49.308;12.178;2023-06-05T10:33:00;23.70;78.80
8736;DHT22;4404;49.308;12.178;2023-06-05T10:35:18;23.80;79.10
8736;DHT22;4404;49.308;12.178;2023-06-05T10:37:44;23.80;79.20
8736;DHT22;4404;49.308;12.178;2023-06-05T10:39:53;23.80;78.10
8736;DHT22;4404;49.308;12.178;2023-06-05T10:41:59;23.80;78.00
8736;DHT22;4404;49.308;12.178;2023-06-05T10:44:03;23.70;79.30
8736;DHT22;4404;49.308;12.178;2023-06-05T10:46:29;23.70;80.00
8736;DHT22;4404;49.308;12.178;2023-06-05T10:49:07;23.70;78.20
8736;DHT22;4404;49.308;12.178;2023-06-05T10:51:36;23.80;78.50
8736;DHT22;4404;49.308;12.178;2023-06-05T10:53:45;23.70;78.40
8736;DHT22;4404;49.308;12.178;2023-06-05T10:55:48;23.80;78.10
8736;DHT22;4404;49.308;12.178;2023-06-05T10:58:04;23.80;78.70
8736;DHT22;4404;49.308;12.178;2023-06-05T11:00:09;24.20;78.80
8736;DHT22;4404;49.308;12.178;2023-06-05T11:02:24;24.20;78.90
8736;DHT22;4404;49.308;12.178;2023-06-05T11:07:21;24.30;76.50
8736;DHT22;4404;49.308;12.178;2023-06-05T11:09:24;24.30;76.40
8736;DHT22;4404;49.308;12.178;2023-06-05T11:11:29;24.10;78.10
8736;DHT22;4404;49.308;12.178;2023-06-05T11:13:53;24.10;78.10
8736;DHT22;4404;49.308;12.178;2023-06-05T11:15:56;24.10;78.10
8736;DHT22;4404;49.308;12.178;2023-06-05T11:18:27;24.00;79.60
8736;DHT22;4404;49.308;12.178;2023-06-05T11:20:51;24.00;79.00
8736;DHT22;4404;49.308;12.178;2023-06-05T11:23:08;24.10;78.60
8736;DHT22;4404;49.308;12.178;2023-06-05T11:25:27;24.30;77.40
8736;DHT22;4404;49.308;12.178;2023-06-05T11:27:43;24.30;77.10
8736;DHT22;4404;49.308;12.178;2023-06-05T11:29:46;24.30;79.00
8736;DHT22;4404;49.308;12.178;2023-06-05T11:31:50;24.30;78.80
8736;DHT22;4404;49.308;12.178;2023-06-05T11:33:57;24.30;80.60
8736;DHT22;4404;49.308;12.178;2023-06-05T11:36:00;24.30;78.60
8736;DHT22;4404;49.308;12.178;2023-06-05T11:38:10;24.30;77.70
8736;DHT22;4404;49.308;12.178;2023-06-05T11:40:24;24.20;78.40
8736;DHT22;4404;49.308;12.178;2023-06-05T11:42:27;24.30;78.80
8736;DHT22;4404;49.308;12.178;2023-06-05T11:44:33;24.20;78.20
8736;DHT22;4404;49.308;12.178;2023-06-05T11:46:37;24.20;78.20
8736;DHT22;4404;49.308;12.178;2023-06-05T11:48:44;24.10;78.50
8736;DHT22;4404;49.308;12.178;2023-06-05T11:50:56;24.10;80.20
8736;DHT22;4404;49.308;12.178;2023-06-05T11:53:06;24.30;77.00
8736;DHT22;4404;49.308;12.178;2023-06-05T11:55:12;24.40;78.00
8736;DHT22;4404;49.308;12.178;2023-06-05T11:57:16;24.50;77.40
8736;DHT22;4404;49.308;12.178;2023-06-05T11:59:18;24.70;75.10
8736;DHT22;4404;49.308;12.178;2023-06-05T12:01:21;24.90;74.80
8736;DHT22;4404;49.308;12.178;2023-06-05T12:03:26;24.90;76.10
8736;DHT22;4404;49.308;12.178;2023-06-05T12:05:30;25.10;75.30
8736;DHT22;4404;49.308;12.178;2023-06-05T12:07:36;25.20;76.00
8736;DHT22;4404;49.308;12.178;2023-06-05T12:09:50;25.20;74.30
8736;DHT22;4404;49.308;12.178;2023-06-05T12:12:04;25.20;75.80
8736;DHT22;4404;49.308;12.178;2023-06-05T12:14:10;25.30;74.30
8736;DHT22;4404;49.308;12.178;2023-06-05T12:16:13;25.30;74.60
8736;DHT22;4404;49.308;12.178;2023-06-05T12:18:17;25.20;74.00
8736;DHT22;4404;49.308;12.178;2023-06-05T12:20:22;25.10;76.00
8736;DHT22;4404;49.308;12.178;2023-06-05T12:22:25;25.10;74.80
8736;DHT22;4404;49.308;12.178;2023-06-05T12:24:29;25.00;73.70
8736;DHT22;4404;49.308;12.178;2023-06-05T12:26:48;25.00;74.00
8736;DHT22;4404;49.308;12.178;2023-06-05T12:29:03;25.10;74.40
8736;DHT22;4404;49.308;12.178;2023-06-05T12:31:07;25.20;75.00
8736;DHT22;4404;49.308;12.178;2023-06-05T12:33:09;25.20;72.60
8736;DHT22;4404;49.308;12.178;2023-06-05T12:35:18;25.20;73.40
8736;DHT22;4404;49.308;12.178;2023-06-05T12:37:24;25.20;73.10
8736;DHT22;4404;49.308;12.178;2023-06-05T12:39:35;25.10;71.90
8736;DHT22;4404;49.308;12.178;2023-06-05T12:41:38;25.10;72.40
8736;DHT22;4404;49.308;12.178;2023-06-05T12:43:40;25.00;72.10
8736;DHT22;4404;49.308;12.178;2023-06-05T12:45:42;24.80;73.30
8736;DHT22;4404;49.308;12.178;2023-06-05T12:47:44;24.50;75.30
8736;DHT22;4404;49.308;12.178;2023-06-05T12:49:47;24.40;74.50
8736;DHT22;4404;49.308;12.178;2023-06-05T12:51:49;24.30;75.00
8736;DHT22;4404;49.308;12.178;2023-06-05T12:53:52;24.10;77.30
8736;DHT22;4404;49.308;12.178;2023-06-05T12:55:55;24.00;77.10
8736;DHT22;4404;49.308;12.178;2023-06-05T12:57:58;24.00;77.40
8736;DHT22;4404;49.308;12.178;2023-06-05T13:00:02;24.00;76.00
8736;DHT22;4404;49.308;12.178;2023-06-05T13:02:11;24.20;75.50
8736;DHT22;4404;49.308;12.178;2023-06-05T13:04:13;23.80;76.40
8736;DHT22;4404;49.308;12.178;2023-06-05T13:06:18;23.80;75.30
8736;DHT22;4404;49.308;12.178;2023-06-05T13:08:21;23.90;75.10
8736;DHT22;4404;49.308;12.178;2023-06-05T13:10:25;23.90;75.20
8736;DHT22;4404;49.308;12.178;2023-06-05T13:12:29;23.90;77.40
8736;DHT22;4404;49.308;12.178;2023-06-05T13:14:31;24.00;75.20
8736;DHT22;4404;49.308;12.178;2023-06-05T13:16:35;23.80;77.10
8736;DHT22;4404;49.308;12.178;2023-06-05T13:18:37;23.80;76.80
8736;DHT22;4404;49.308;12.178;2023-06-05T13:20:39;23.70;77.30
8736;DHT22;4404;49.308;12.178;2023-06-05T13:22:41;23.70;77.70
8736;DHT22;4404;49.308;12.178;2023-06-05T13:24:43;23.70;77.10
8736;DHT22;4404;49.308;12.178;2023-06-05T13:26:46;23.80;77.90
8736;DHT22;4404;49.308;12.178;2023-06-05T13:28:50;23.90;77.70
8736;DHT22;4404;49.308;12.178;2023-06-05T13:30:52;23.90;76.00
8736;DHT22;4404;49.308;12.178;2023-06-05T13:32:54;23.90;77.00
8736;DHT22;4404;49.308;12.178;2023-06-05T13:34:57;23.80;76.90
8736;DHT22;4404;49.308;12.178;2023-06-05T13:36:59;23.80;77.30
8736;DHT22;4404;49.308;12.178;2023-06-05T13:39:01;23.70;76.70
8736;DHT22;4404;49.308;12.178;2023-06-05T13:41:04;23.60;76.20
8736;DHT22;4404;49.308;12.178;2023-06-05T13:43:07;23.70;78.10
8736;DHT22;4404;49.308;12.178;2023-06-05T13:45:10;23.70;77.00
8736;DHT22;4404;49.308;12.178;2023-06-05T13:47:12;23.80;75.80
8736;DHT22;4404;49.308;12.178;2023-06-05T13:49:15;23.80;77.40
8736;DHT22;4404;49.308;12.178;2023-06-05T13:51:17;23.90;75.70
8736;DHT22;4404;49.308;12.178;2023-06-05T13:53:19;23.80;75.80
8736;DHT22;4404;49.308;12.178;2023-06-05T13:55:22;23.70;76.70
8736;DHT22;4404;49.308;12.178;2023-06-05T13:57:24;23.80;77.50
8736;DHT22;4404;49.308;12.178;2023-06-05T13:59:26;24.00;77.50
8736;DHT22;4404;49.308;12.178;2023-06-05T14:01:30;24.30;77.30
8736;DHT22;4404;49.308;12.178;2023-06-05T14:03:32;24.50;77.10
8736;DHT22;4404;49.308;12.178;2023-06-05T14:05:34;24.70;77.00
8736;DHT22;4404;49.308;12.178;2023-06-05T14:07:38;24.80;76.10
8736;DHT22;4404;49.308;12.178;2023-06-05T14:09:40;24.80;77.70
8736;DHT22;4404;49.308;12.178;2023-06-05T14:11:43;24.70;74.80
8736;DHT22;4404;49.308;12.178;2023-06-05T14:13:45;24.60;75.40
8736;DHT22;4404;49.308;12.178;2023-06-05T14:15:47;24.70;74.70
8736;DHT22;4404;49.308;12.178;2023-06-05T14:17:51;24.80;75.60
8736;DHT22;4404;49.308;12.178;2023-06-05T14:19:53;24.90;75.10
8736;DHT22;4404;49.308;12.178;2023-06-05T14:21:56;25.10;74.00
8736;DHT22;4404;49.308;12.178;2023-06-05T14:23:58;25.00;74.70
8736;DHT22;4404;49.308;12.178;2023-06-05T14:26:00;25.10;74.00
8736;DHT22;4404;49.308;12.178;2023-06-05T14:28:02;25.20;73.80
8736;DHT22;4404;49.308;12.178;2023-06-05T14:30:07;25.10;73.50
8736;DHT22;4404;49.308;12.178;2023-06-05T14:32:10;25.20;73.70
8736;DHT22;4404;49.308;12.178;2023-06-05T14:34:14;25.20;74.60
8736;DHT22;4404;49.308;12.178;2023-06-05T14:36:17;25.30;74.10
8736;DHT22;4404;49.308;12.178;2023-06-05T14:38:19;25.40;73.90
8736;DHT22;4404;49.308;12.178;2023-06-05T14:40:21;25.30;75.20
8736;DHT22;4404;49.308;12.178;2023-06-05T14:42:24;25.30;73.30
8736;DHT22;4404;49.308;12.178;2023-06-05T14:44:26;25.10;73.20
8736;DHT22;4404;49.308;12.178;2023-06-05T14:46:28;25.10;72.60
8736;DHT22;4404;49.308;12.178;2023-06-05T14:48:30;25.20;73.10
8736;DHT22;4404;49.308;12.178;2023-06-05T14:50:34;25.10;73.00
8736;DHT22;4404;49.308;12.178;2023-06-05T14:52:36;24.90;72.50
8736;DHT22;4404;49.308;12.178;2023-06-05T14:54:38;24.90;73.10
8736;DHT22;4404;49.308;12.178;2023-06-05T14:56:41;24.80;74.80
8736;DHT22;4404;49.308;12.178;2023-06-05T14:58:44;24.60;74.00
8736;DHT22;4404;49.308;12.178;2023-06-05T15:00:46;24.50;73.40
8736;DHT22;4404;49.308;12.178;2023-06-05T15:02:49;24.50;72.80
8736;DHT22;4404;49.308;12.178;2023-06-05T15:04:51;24.30;74.30
8736;DHT22;4404;49.308;12.178;2023-06-05T15:06:54;24.30;73.50
8736;DHT22;4404;49.308;12.178;2023-06-05T15:08:57;24.20;73.30
8736;DHT22;4404;49.308;12.178;2023-06-05T15:10:59;24.20;73.40
8736;DHT22;4404;49.308;12.178;2023-06-05T15:13:01;24.10;73.80
8736;DHT22;4404;49.308;12.178;2023-06-05T15:15:06;24.10;75.30
8736;DHT22;4404;49.308;12.178;2023-06-05T15:17:09;24.10;74.50
8736;DHT22;4404;49.308;12.178;2023-06-05T15:19:12;24.10;75.30
8736;DHT22;4404;49.308;12.178;2023-06-05T15:21:15;24.20;74.70
8736;DHT22;4404;49.308;12.178;2023-06-05T15:23:21;24.20;75.30
8736;DHT22;4404;49.308;12.178;2023-06-05T15:25:23;24.20;74.70
8736;DHT22;4404;49.308;12.178;2023-06-05T15:27:26;24.00;75.20
8736;DHT22;4404;49.308;12.178;2023-06-05T15:29:28;23.80;74.80
8736;DHT22;4404;49.308;12.178;2023-06-05T15:31:30;23.80;76.80
8736;DHT22;4404;49.308;12.178;2023-06-05T15:33:33;23.80;74.60
8736;DHT22;4404;49.308;12.178;2023-06-05T15:35:35;23.80;75.00
8736;DHT22;4404;49.308;12.178;2023-06-05T15:37:41;23.90;75.10
8736;DHT22;4404;49.308;12.178;2023-06-05T15:39:45;23.90;75.10
8736;DHT22;4404;49.308;12.178;2023-06-05T15:41:47;23.80;75.00
8736;DHT22;4404;49.308;12.178;2023-06-05T15:43:51;23.70;75.30
8736;DHT22;4404;49.308;12.178;2023-06-05T15:45:55;23.50;75.40
8736;DHT22;4404;49.308;12.178;2023-06-05T15:47:57;23.30;75.30
8736;DHT22;4404;49.308;12.178;2023-06-05T15:50:00;23.10;75.60
8736;DHT22;4404;49.308;12.178;2023-06-05T15:52:02;22.90;75.50
8736;DHT22;4404;49.308;12.178;2023-06-05T15:54:05;22.90;75.20
8736;DHT22;4404;49.308;12.178;2023-06-05T15:56:09;22.80;75.30
8736;DHT22;4404;49.308;12.178;2023-06-05T15:58:11;22.80;74.80
8736;DHT22;4404;49.308;12.178;2023-06-05T16:00:14;22.80;75.40
8736;DHT22;4404;49.308;12.178;2023-06-05T16:02:17;22.80;76.40
8736;DHT22;4404;49.308;12.178;2023-06-05T16:04:19;22.80;76.20
8736;DHT22;4404;49.308;12.178;2023-06-05T16:06:22;22.70;75.40
8736;DHT22;4404;49.308;12.178;2023-06-05T16:08:24;22.80;76.30
8736;DHT22;4404;49.308;12.178;2023-06-05T16:10:26;22.80;75.70
8736;DHT22;4404;49.308;12.178;2023-06-05T16:12:30;22.90;76.10
8736;DHT22;4404;49.308;12.178;2023-06-05T16:14:32;22.80;76.00
8736;DHT22;4404;49.308;12.178;2023-06-05T16:16:34;22.70;76.10
8736;DHT22;4404;49.308;12.178;2023-06-05T16:18:36;22.40;78.00
8736;DHT22;4404;49.308;12.178;2023-06-05T16:20:38;22.20;78.40
8736;DHT22;4404;49.308;12.178;2023-06-05T16:22:42;22.30;78.70
8736;DHT22;4404;49.308;12.178;2023-06-05T16:24:45;22.20;78.60
8736;DHT22;4404;49.308;12.178;2023-06-05T16:26:47;22.20;78.60
8736;DHT22;4404;49.308;12.178;2023-06-05T16:28:50;22.10;78.60
8736;DHT22;4404;49.308;12.178;2023-06-05T16:30:52;22.10;78.90
8736;DHT22;4404;49.308;12.178;2023-06-05T16:32:55;22.10;78.40
8736;DHT22;4404;49.308;12.178;2023-06-05T16:34:57;22.00;78.60
8736;DHT22;4404;49.308;12.178;2023-06-05T16:36:59;22.00;78.80
8736;DHT22;4404;49.308;12.178;2023-06-05T16:39:03;22.10;78.10
8736;DHT22;4404;49.308;12.178;2023-06-05T16:41:11;22.00;78.10
8736;DHT22;4404;49.308;12.178;2023-06-05T16:43:35;22.00;78.80
8736;DHT22;4404;49.308;12.178;2023-06-05T16:45:42;22.00;78.20
8736;DHT22;4404;49.308;12.178;2023-06-05T16:47:56;21.90;78.50
8736;DHT22;4404;49.308;12.178;2023-06-05T16:49:59;21.90;78.50
8736;DHT22;4404;49.308;12.178;2023-06-05T16:52:01;21.80;79.50
8736;DHT22;4404;49.308;12.178;2023-06-05T16:54:03;21.80;79.80
8736;DHT22;4404;49.308;12.178;2023-06-05T16:56:06;21.80;79.70
8736;DHT22;4404;49.308;12.178;2023-06-05T16:58:10;21.80;79.30
8736;DHT22;4404;49.308;12.178;2023-06-05T17:00:14;21.80;79.00
8736;DHT22;4404;49.308;12.178;2023-06-05T17:02:19;21.80;80.00
8736;DHT22;4404;49.308;12.178;2023-06-05T17:04:21;21.70;80.00
8736;DHT22;4404;49.308;12.178;2023-06-05T17:06:23;21.70;80.30
8736;DHT22;4404;49.308;12.178;2023-06-05T17:08:25;21.70;80.40
8736;DHT22;4404;49.308;12.178;2023-06-05T17:10:28;21.70;79.30
8736;DHT22;4404;49.308;12.178;2023-06-05T17:12:32;21.60;79.10
8736;DHT22;4404;49.308;12.178;2023-06-05T17:14:34;21.60;78.90
8736;DHT22;4404;49.308;12.178;2023-06-05T17:16:36;21.50;78.50
8736;DHT22;4404;49.308;12.178;2023-06-05T17:18:39;21.50;78.30
8736;DHT22;4404;49.308;12.178;2023-06-05T17:20:44;21.40;78.90
8736;DHT22;4404;49.308;12.178;2023-06-05T17:22:46;21.30;79.10
8736;DHT22;4404;49.308;12.178;2023-06-05T17:24:48;21.20;80.20
8736;DHT22;4404;49.308;12.178;2023-06-05T17:26:51;21.00;81.20
8736;DHT22;4404;49.308;12.178;2023-06-05T17:28:53;21.00;81.80
8736;DHT22;4404;49.308;12.178;2023-06-05T17:30:58;21.00;81.20
8736;DHT22;4404;49.308;12.178;2023-06-05T17:33:00;20.90;82.00
8736;DHT22;4404;49.308;12.178;2023-06-05T17:35:05;20.90;81.90
8736;DHT22;4404;49.308;12.178;2023-06-05T17:37:07;20.80;81.60
8736;DHT22;4404;49.308;12.178;2023-06-05T17:39:10;20.80;81.70
8736;DHT22;4404;49.308;12.178;2023-06-05T17:41:12;20.70;79.80
8736;DHT22;4404;49.308;12.178;2023-06-05T17:43:15;20.40;80.30
8736;DHT22;4404;49.308;12.178;2023-06-05T17:45:17;20.30;80.40
8736;DHT22;4404;49.308;12.178;2023-06-05T17:47:20;20.30;79.70
8736;DHT22;4404;49.308;12.178;2023-06-05T17:49:22;20.20;80.20
8736;DHT22;4404;49.308;12.178;2023-06-05T17:51:26;20.20;79.80
8736;DHT22;4404;49.308;12.178;2023-06-05T17:53:28;20.20;80.30
8736;DHT22;4404;49.308;12.178;2023-06-05T17:55:30;20.10;80.90
8736;DHT22;4404;49.308;12.178;2023-06-05T17:57:33;20.10;80.80
8736;DHT22;4404;49.308;12.178;2023-06-05T17:59:35;20.00;81.50
8736;DHT22;4404;49.308;12.178;2023-06-05T18:01:37;19.80;81.70
8736;DHT22;4404;49.308;12.178;2023-06-05T18:03:39;19.60;82.60
8736;DHT22;4404;49.308;12.178;2023-06-05T18:05:42;19.60;82.60
8736;DHT22;4404;49.308;12.178;2023-06-05T18:07:45;19.60;82.70
